sensor_id;sensor_type;location;lat;lon;timestamp;pressure;altitude;pressure_sealevel;temperature;humidity
31357;BME280;60001;48.404;11.738;2023-11-22T00:00:29;96325.91;;;7.96;86.87
31357;BME280;60001;48.404;11.738;2023-11-22T00:02:01;96362.97;;;8.23;86.51
31357;BME280;60001;48.404;11.738;2023-11-22T00:03:32;96360.00;;;8.19;86.35
31357;BME280;60001;48.404;11.738;2023-11-22T00:05:05;96375.44;;;8.28;86.56
31357;BME280;60001;48.404;11.738;2023-11-22T00:06:36;96369.59;;;8.25;86.34
31357;BME280;60001;48.404;11.738;2023-11-22T00:08:07;96363.09;;;8.28;86.39
31357;BME280;60001;48.404;11.738;2023-11-22T00:09:38;96361.38;;;8.22;86.05
31357;BME280;60001;48.404;11.738;2023-11-22T00:11:10;96361.94;;;8.24;85.99
31357;BME280;60001;48.404;11.738;2023-11-22T00:12:41;96366.66;;;8.22;86.32
31357;BME280;60001;48.404;11.738;2023-11-22T00:14:14;96367.56;;;8.28;86.28
31357;BME280;60001;48.404;11.738;2023-11-22T00:15:44;96368.56;;;8.27;85.82
31357;BME280;60001;48.404;11.738;2023-11-22T00:17:16;96379.56;;;8.23;86.03
31357;BME280;60001;48.404;11.738;2023-11-22T00:18:47;96374.63;;;8.27;86.14
31357;BME280;60001;48.404;11.738;2023-11-22T00:20:19;96376.25;;;8.28;85.91
31357;BME280;60001;48.404;11.738;2023-11-22T00:21:51;96376.78;;;8.30;86.20
31357;BME280;60001;48.404;11.738;2023-11-22T00:23:23;96373.81;;;8.27;86.10
31357;BME280;60001;48.404;11.738;2023-11-22T00:25:00;96366.53;;;8.17;86.16
31357;BME280;60001;48.404;11.738;2023-11-22T00:26:32;96376.94;;;8.23;86.55
31357;BME280;60001;48.404;11.738;2023-11-22T00:28:03;96381.16;;;8.24;86.30
31357;BME280;60001;48.404;11.738;2023-11-22T00:29:37;96384.63;;;8.13;86.59
31357;BME280;60001;48.404;11.738;2023-11-22T00:31:08;96378.66;;;8.18;86.86
31357;BME280;60001;48.404;11.738;2023-11-22T00:32:40;96382.88;;;8.19;86.86
31357;BME280;60001;48.404;11.738;2023-11-22T00:34:11;96386.56;;;8.18;86.54
31357;BME280;60001;48.404;11.738;2023-11-22T00:35:43;96372.31;;;8.02;86.73
31357;BME280;60001;48.404;11.738;2023-11-22T00:37:13;96378.75;;;7.94;86.62
31357;BME280;60001;48.404;11.738;2023-11-22T00:38:45;96387.19;;;7.96;86.23
31357;BME280;60001;48.404;11.738;2023-11-22T00:40:16;96390.50;;;7.92;86.09
31357;BME280;60001;48.404;11.738;2023-11-22T00:41:48;96387.31;;;7.90;85.77
31357;BME280;60001;48.404;11.738;2023-11-22T00:43:19;96394.28;;;7.96;85.46
31357;BME280;60001;48.404;11.738;2023-11-22T00:44:52;96395.69;;;7.75;85.01
31357;BME280;60001;48.404;11.738;2023-11-22T00:46:22;96365.34;;;7.21;85.79
31357;BME280;60001;48.404;11.738;2023-11-22T00:47:55;96397.44;;;7.46;86.09
31357;BME280;60001;48.404;11.738;2023-11-22T00:49:25;96402.00;;;7.39;85.75
31357;BME280;60001;48.404;11.738;2023-11-22T00:50:57;96406.91;;;7.35;86.00
31357;BME280;60001;48.404;11.738;2023-11-22T00:52:28;96409.28;;;7.13;85.16
31357;BME280;60001;48.404;11.738;2023-11-22T00:54:00;96395.91;;;6.92;85.27
31357;BME280;60001;48.404;11.738;2023-11-22T00:55:31;96409.81;;;6.92;85.58
31357;BME280;60001;48.404;11.738;2023-11-22T00:57:03;96414.75;;;7.00;85.29
31357;BME280;60001;48.404;11.738;2023-11-22T00:58:35;96400.88;;;6.81;85.07
31357;BME280;60001;48.404;11.738;2023-11-22T01:00:08;96389.16;;;6.84;84.11
31357;BME280;60001;48.404;11.738;2023-11-22T01:01:41;96416.69;;;7.05;83.12
31357;BME280;60001;48.404;11.738;2023-11-22T01:03:12;96415.91;;;7.16;81.96
31357;BME280;60001;48.404;11.738;2023-11-22T01:04:44;96403.66;;;6.86;81.22
31357;BME280;60001;48.404;11.738;2023-11-22T01:06:15;96421.81;;;7.00;81.33
31357;BME280;60001;48.404;11.738;2023-11-22T01:07:48;96421.03;;;6.99;80.57
31357;BME280;60001;48.404;11.738;2023-11-22T01:09:19;96434.13;;;6.87;80.25
31357;BME280;60001;48.404;11.738;2023-11-22T01:10:51;96430.91;;;6.85;79.87
31357;BME280;60001;48.404;11.738;2023-11-22T01:12:22;96431.47;;;6.76;78.84
31357;BME280;60001;48.404;11.738;2023-11-22T01:13:54;96436.03;;;6.69;79.33
31357;BME280;60001;48.404;11.738;2023-11-22T01:15:26;96429.47;;;6.59;78.77
31357;BME280;60001;48.404;11.738;2023-11-22T01:16:58;96436.44;;;6.66;78.84
31357;BME280;60001;48.404;11.738;2023-11-22T01:18:30;96444.09;;;6.67;77.96
31357;BME280;60001;48.404;11.738;2023-11-22T01:20:01;96431.13;;;6.42;76.83
31357;BME280;60001;48.404;11.738;2023-11-22T01:21:33;96441.47;;;6.37;76.88
31357;BME280;60001;48.404;11.738;2023-11-22T01:23:05;96442.13;;;6.32;76.99
31357;BME280;60001;48.404;11.738;2023-11-22T01:24:36;96432.38;;;6.21;76.66
31357;BME280;60001;48.404;11.738;2023-11-22T01:26:09;96441.25;;;6.39;76.66
31357;BME280;60001;48.404;11.738;2023-11-22T01:27:40;96452.34;;;6.22;76.52
31357;BME280;60001;48.404;11.738;2023-11-22T01:29:12;96453.59;;;6.20;77.43
31357;BME280;60001;48.404;11.738;2023-11-22T01:30:44;96445.28;;;6.04;76.41
31357;BME280;60001;48.404;11.738;2023-11-22T01:32:16;96457.50;;;6.11;76.44
31357;BME280;60001;48.404;11.738;2023-11-22T01:33:47;96414.78;;;5.92;76.49
31357;BME280;60001;48.404;11.738;2023-11-22T01:35:19;96456.41;;;6.18;76.44
31357;BME280;60001;48.404;11.738;2023-11-22T01:36:50;96455.13;;;6.09;76.57
31357;BME280;60001;48.404;11.738;2023-11-22T01:38:22;96452.34;;;6.04;76.16
31357;BME280;60001;48.404;11.738;2023-11-22T01:39:53;96464.47;;;5.80;75.05
31357;BME280;60001;48.404;11.738;2023-11-22T01:41:25;96472.25;;;5.87;76.04
31357;BME280;60001;48.404;11.738;2023-11-22T01:42:56;96472.81;;;5.95;76.09
31357;BME280;60001;48.404;11.738;2023-11-22T01:44:28;96474.50;;;6.08;75.32
31357;BME280;60001;48.404;11.738;2023-11-22T01:46:00;96475.72;;;6.06;76.27
31357;BME280;60001;48.404;11.738;2023-11-22T01:47:32;96470.56;;;5.99;74.55
31357;BME280;60001;48.404;11.738;2023-11-22T01:49:03;96478.53;;;5.86;75.10
31357;BME280;60001;48.404;11.738;2023-11-22T01:50:35;96470.06;;;5.84;75.55
31357;BME280;60001;48.404;11.738;2023-11-22T01:52:07;96481.44;;;5.77;75.80
31357;BME280;60001;48.404;11.738;2023-11-22T01:53:39;96487.25;;;5.80;75.51
31357;BME280;60001;48.404;11.738;2023-11-22T01:55:10;96481.50;;;5.89;75.61
31357;BME280;60001;48.404;11.738;2023-11-22T01:56:44;96482.19;;;5.85;75.93
31357;BME280;60001;48.404;11.738;2023-11-22T01:58:16;96482.31;;;5.90;76.41
31357;BME280;60001;48.404;11.738;2023-11-22T01:59:48;96477.28;;;5.88;75.55
31357;BME280;60001;48.404;11.738;2023-11-22T02:01:20;96482.38;;;5.83;75.84
31357;BME280;60001;48.404;11.738;2023-11-22T02:02:52;96484.34;;;5.88;75.92
31357;BME280;60001;48.404;11.738;2023-11-22T02:04:23;96476.72;;;5.86;75.29
31357;BME280;60001;48.404;11.738;2023-11-22T02:05:55;96479.56;;;5.85;75.53
31357;BME280;60001;48.404;11.738;2023-11-22T02:07:27;96490.66;;;5.80;75.73
31357;BME280;60001;48.404;11.738;2023-11-22T02:08:59;96495.69;;;5.82;76.39
31357;BME280;60001;48.404;11.738;2023-11-22T02:10:30;96499.28;;;5.87;75.83
31357;BME280;60001;48.404;11.738;2023-11-22T02:12:02;96492.03;;;5.83;76.28
31357;BME280;60001;48.404;11.738;2023-11-22T02:13:34;96497.09;;;5.84;76.16
31357;BME280;60001;48.404;11.738;2023-11-22T02:15:06;96501.09;;;5.87;75.88
31357;BME280;60001;48.404;11.738;2023-11-22T02:16:39;96500.34;;;5.80;75.47
31357;BME280;60001;48.404;11.738;2023-11-22T02:18:10;96500.78;;;5.76;75.58
31357;BME280;60001;48.404;11.738;2023-11-22T02:19:42;96497.00;;;5.72;76.00
31357;BME280;60001;48.404;11.738;2023-11-22T02:21:13;96501.28;;;5.67;75.54
31357;BME280;60001;48.404;11.738;2023-11-22T02:22:47;96495.34;;;5.53;76.33
31357;BME280;60001;48.404;11.738;2023-11-22T02:24:19;96506.34;;;5.62;77.24
31357;BME280;60001;48.404;11.738;2023-11-22T02:25:52;96499.28;;;5.62;77.66
31357;BME280;60001;48.404;11.738;2023-11-22T02:27:22;96508.63;;;5.76;77.60
31357;BME280;60001;48.404;11.738;2023-11-22T02:28:54;96510.44;;;5.76;76.98
31357;BME280;60001;48.404;11.738;2023-11-22T02:30:25;96499.28;;;5.62;76.44
31357;BME280;60001;48.404;11.738;2023-11-22T02:31:57;96505.50;;;5.68;76.53
31357;BME280;60001;48.404;11.738;2023-11-22T02:33:28;96510.09;;;5.72;76.66
31357;BME280;60001;48.404;11.738;2023-11-22T02:34:59;96509.72;;;5.69;76.41
31357;BME280;60001;48.404;11.738;2023-11-22T02:36:31;96513.13;;;5.69;76.77
31357;BME280;60001;48.404;11.738;2023-11-22T02:38:03;96515.13;;;5.74;77.20
31357;BME280;60001;48.404;11.738;2023-11-22T02:39:48;96511.13;;;5.71;77.42
31357;BME280;60001;48.404;11.738;2023-11-22T02:41:26;96514.75;;;5.70;77.22
31357;BME280;60001;48.404;11.738;2023-11-22T02:43:00;96518.75;;;5.73;76.75
31357;BME280;60001;48.404;11.738;2023-11-22T02:44:35;96512.78;;;5.66;77.21
31357;BME280;60001;48.404;11.738;2023-11-22T02:46:06;96516.19;;;5.66;78.11
31357;BME280;60001;48.404;11.738;2023-11-22T02:47:38;96515.81;;;5.63;77.91
31357;BME280;60001;48.404;11.738;2023-11-22T02:49:09;96514.59;;;5.65;78.18
31357;BME280;60001;48.404;11.738;2023-11-22T02:50:41;96508.22;;;5.55;77.58
31357;BME280;60001;48.404;11.738;2023-11-22T02:52:14;96508.97;;;5.62;77.71
31357;BME280;60001;48.404;11.738;2023-11-22T02:53:46;96508.56;;;5.65;77.29
31357;BME280;60001;48.404;11.738;2023-11-22T02:55:20;96513.56;;;5.66;77.52
31357;BME280;60001;48.404;11.738;2023-11-22T02:56:50;96508.06;;;5.74;77.00
31357;BME280;60001;48.404;11.738;2023-11-22T02:58:23;96516.34;;;5.71;76.73
31357;BME280;60001;48.404;11.738;2023-11-22T02:59:53;96524.06;;;5.66;76.98
31357;BME280;60001;48.404;11.738;2023-11-22T03:01:25;96530.25;;;5.72;76.42
31357;BME280;60001;48.404;11.738;2023-11-22T03:02:56;96527.03;;;5.70;76.06
31357;BME280;60001;48.404;11.738;2023-11-22T03:04:28;96527.47;;;5.67;75.77
31357;BME280;60001;48.404;11.738;2023-11-22T03:05:59;96523.03;;;5.67;76.15
31357;BME280;60001;48.404;11.738;2023-11-22T03:07:30;96519.34;;;5.75;75.75
31357;BME280;60001;48.404;11.738;2023-11-22T03:09:01;96518.19;;;5.71;76.34
31357;BME280;60001;48.404;11.738;2023-11-22T03:10:36;96523.78;;;5.74;76.11
31357;BME280;60001;48.404;11.738;2023-11-22T03:12:07;96509.72;;;5.69;75.42
31357;BME280;60001;48.404;11.738;2023-11-22T03:13:39;96522.97;;;5.74;75.37
31357;BME280;60001;48.404;11.738;2023-11-22T03:15:10;96523.66;;;5.63;76.15
31357;BME280;60001;48.404;11.738;2023-11-22T03:16:42;96525.34;;;5.57;75.69
31357;BME280;60001;48.404;11.738;2023-11-22T03:18:13;96511.59;;;5.37;76.52
31357;BME280;60001;48.404;11.738;2023-11-22T03:19:46;96525.00;;;5.47;76.48
31357;BME280;60001;48.404;11.738;2023-11-22T03:21:17;96517.81;;;5.42;76.17
31357;BME280;60001;48.404;11.738;2023-11-22T03:22:49;96526.47;;;5.43;76.25
31357;BME280;60001;48.404;11.738;2023-11-22T03:24:20;96525.22;;;5.45;76.86
31357;BME280;60001;48.404;11.738;2023-11-22T03:25:54;96501.75;;;5.32;76.61
31357;BME280;60001;48.404;11.738;2023-11-22T03:27:24;96522.78;;;5.50;76.94
31357;BME280;60001;48.404;11.738;2023-11-22T03:28:56;96521.38;;;5.48;76.20
31357;BME280;60001;48.404;11.738;2023-11-22T03:30:27;96522.56;;;5.52;75.59
31357;BME280;60001;48.404;11.738;2023-11-22T03:31:59;96511.16;;;5.40;75.62
31357;BME280;60001;48.404;11.738;2023-11-22T03:33:29;96522.38;;;5.47;75.71
31357;BME280;60001;48.404;11.738;2023-11-22T03:35:01;96522.66;;;5.39;75.19
31357;BME280;60001;48.404;11.738;2023-11-22T03:36:32;96529.50;;;5.40;75.55
31357;BME280;60001;48.404;11.738;2023-11-22T03:38:04;96529.88;;;5.43;74.99
31357;BME280;60001;48.404;11.738;2023-11-22T03:39:34;96535.16;;;5.37;74.96
31357;BME280;60001;48.404;11.738;2023-11-22T03:41:08;96534.38;;;5.36;75.62
31357;BME280;60001;48.404;11.738;2023-11-22T03:42:38;96534.91;;;5.45;75.29
31357;BME280;60001;48.404;11.738;2023-11-22T03:44:10;96538.94;;;5.41;75.20
31357;BME280;60001;48.404;11.738;2023-11-22T03:45:41;96536.19;;;5.36;75.25
31357;BME280;60001;48.404;11.738;2023-11-22T03:47:15;96534.94;;;5.38;75.71
31357;BME280;60001;48.404;11.738;2023-11-22T03:48:47;96539.44;;;5.31;75.63
31357;BME280;60001;48.404;11.738;2023-11-22T03:50:19;96544.66;;;5.31;75.50
31357;BME280;60001;48.404;11.738;2023-11-22T03:51:49;96552.88;;;5.35;75.50
31357;BME280;60001;48.404;11.738;2023-11-22T03:53:21;96554.34;;;5.31;75.53
31357;BME280;60001;48.404;11.738;2023-11-22T03:54:53;96557.75;;;5.31;74.84
31357;BME280;60001;48.404;11.738;2023-11-22T03:56:26;96560.25;;;5.19;75.41
31357;BME280;60001;48.404;11.738;2023-11-22T03:57:57;96565.47;;;5.19;75.27
31357;BME280;60001;48.404;11.738;2023-11-22T03:59:29;96574.75;;;5.22;75.00
31357;BME280;60001;48.404;11.738;2023-11-22T04:01:00;96581.72;;;5.28;74.96
31357;BME280;60001;48.404;11.738;2023-11-22T04:02:33;96578.88;;;5.36;74.35
31357;BME280;60001;48.404;11.738;2023-11-22T04:04:04;96579.28;;;5.33;75.33
31357;BME280;60001;48.404;11.738;2023-11-22T04:05:35;96586.94;;;5.35;75.39
31357;BME280;60001;48.404;11.738;2023-11-22T04:07:06;96566.13;;;5.15;75.18
31357;BME280;60001;48.404;11.738;2023-11-22T04:08:38;96589.41;;;5.30;74.90
31357;BME280;60001;48.404;11.738;2023-11-22T04:10:09;96578.16;;;5.22;74.88
31357;BME280;60001;48.404;11.738;2023-11-22T04:11:42;96593.03;;;5.29;75.19
31357;BME280;60001;48.404;11.738;2023-11-22T04:13:13;96583.72;;;5.33;75.32
31357;BME280;60001;48.404;11.738;2023-11-22T04:14:45;96591.59;;;5.33;75.05
31357;BME280;60001;48.404;11.738;2023-11-22T04:16:16;96598.84;;;5.31;74.81
31357;BME280;60001;48.404;11.738;2023-11-22T04:17:47;96605.41;;;5.15;75.35
31357;BME280;60001;48.404;11.738;2023-11-22T04:19:19;96608.19;;;5.13;75.79
31357;BME280;60001;48.404;11.738;2023-11-22T04:20:51;96614.03;;;5.15;76.14
31357;BME280;60001;48.404;11.738;2023-11-22T04:22:22;96620.91;;;5.10;76.09
31357;BME280;60001;48.404;11.738;2023-11-22T04:23:54;96616.25;;;5.12;75.69
31357;BME280;60001;48.404;11.738;2023-11-22T04:25:25;96612.00;;;5.17;76.16
31357;BME280;60001;48.404;11.738;2023-11-22T04:26:58;96620.41;;;5.26;75.92
31357;BME280;60001;48.404;11.738;2023-11-22T04:28:29;96628.28;;;5.26;75.89
31357;BME280;60001;48.404;11.738;2023-11-22T04:30:01;96615.56;;;5.30;76.00
31357;BME280;60001;48.404;11.738;2023-11-22T04:31:33;96615.16;;;5.33;75.27
31357;BME280;60001;48.404;11.738;2023-11-22T04:33:04;96612.19;;;5.22;75.81
31357;BME280;60001;48.404;11.738;2023-11-22T04:34:36;96612.59;;;5.19;75.63
31357;BME280;60001;48.404;11.738;2023-11-22T04:36:08;96610.22;;;5.11;75.04
31357;BME280;60001;48.404;11.738;2023-11-22T04:37:39;96622.66;;;5.22;74.90
31357;BME280;60001;48.404;11.738;2023-11-22T04:39:11;96621.28;;;5.13;75.22
31357;BME280;60001;48.404;11.738;2023-11-22T04:40:43;96632.34;;;5.22;75.20
31357;BME280;60001;48.404;11.738;2023-11-22T04:42:17;96625.25;;;5.29;74.63
31357;BME280;60001;48.404;11.738;2023-11-22T04:43:47;96628.72;;;5.23;74.49
31357;BME280;60001;48.404;11.738;2023-11-22T04:45:19;96637.16;;;5.25;74.36
31357;BME280;60001;48.404;11.738;2023-11-22T04:46:50;96642.38;;;5.25;74.63
31357;BME280;60001;48.404;11.738;2023-11-22T04:48:21;96631.88;;;5.32;74.35
31357;BME280;60001;48.404;11.738;2023-11-22T04:49:52;96649.25;;;5.19;74.28
31357;BME280;60001;48.404;11.738;2023-11-22T04:51:24;96650.81;;;5.27;74.44
31357;BME280;60001;48.404;11.738;2023-11-22T04:52:57;96649.25;;;5.19;75.21
31357;BME280;60001;48.404;11.738;2023-11-22T04:54:27;96656.09;;;5.20;73.98
31357;BME280;60001;48.404;11.738;2023-11-22T04:55:59;96657.91;;;5.20;73.96
31357;BME280;60001;48.404;11.738;2023-11-22T04:57:33;96653.34;;;5.09;74.06
31357;BME280;60001;48.404;11.738;2023-11-22T04:59:05;96656.13;;;5.14;74.60
31357;BME280;60001;48.404;11.738;2023-11-22T05:00:36;96649.94;;;5.02;74.05
31357;BME280;60001;48.404;11.738;2023-11-22T05:02:08;96660.38;;;5.08;75.08
31357;BME280;60001;48.404;11.738;2023-11-22T05:03:38;96663.16;;;5.13;74.77
31357;BME280;60001;48.404;11.738;2023-11-22T05:05:10;96663.56;;;5.17;74.23
31357;BME280;60001;48.404;11.738;2023-11-22T05:06:41;96660.97;;;5.10;73.85
31357;BME280;60001;48.404;11.738;2023-11-22T05:08:14;96660.59;;;5.00;74.79
31357;BME280;60001;48.404;11.738;2023-11-22T05:09:44;96662.44;;;4.93;74.94
31357;BME280;60001;48.404;11.738;2023-11-22T05:11:16;96665.06;;;4.93;74.34
31357;BME280;60001;48.404;11.738;2023-11-22T05:12:48;96654.41;;;4.94;73.87
31357;BME280;60001;48.404;11.738;2023-11-22T05:14:20;96665.66;;;4.95;74.54
31357;BME280;60001;48.404;11.738;2023-11-22T05:15:51;96666.69;;;4.94;74.39
31357;BME280;60001;48.404;11.738;2023-11-22T05:17:23;96678.75;;;4.95;74.02
31357;BME280;60001;48.404;11.738;2023-11-22T05:18:54;96678.53;;;4.97;74.68
31357;BME280;60001;48.404;11.738;2023-11-22T05:20:26;96682.53;;;5.06;74.23
31357;BME280;60001;48.404;11.738;2023-11-22T05:21:56;96684.56;;;4.97;74.59
31357;BME280;60001;48.404;11.738;2023-11-22T05:23:28;96686.19;;;4.98;74.57
31357;BME280;60001;48.404;11.738;2023-11-22T05:24:59;96685.81;;;4.94;74.27
31357;BME280;60001;48.404;11.738;2023-11-22T05:26:31;96698.69;;;4.96;74.31
31357;BME280;60001;48.404;11.738;2023-11-22T05:28:03;96700.25;;;5.04;73.80
31357;BME280;60001;48.404;11.738;2023-11-22T05:29:35;96689.81;;;4.97;74.64
31357;BME280;60001;48.404;11.738;2023-11-22T05:31:06;96686.75;;;5.00;74.36
31357;BME280;60001;48.404;11.738;2023-11-22T05:32:38;96694.81;;;5.05;74.27
31357;BME280;60001;48.404;11.738;2023-11-22T05:34:09;96688.78;;;5.05;74.24
31357;BME280;60001;48.404;11.738;2023-11-22T05:35:40;96679.94;;;4.99;73.69
31357;BME280;60001;48.404;11.738;2023-11-22T05:37:12;96683.19;;;4.94;73.91
31357;BME280;60001;48.404;11.738;2023-11-22T05:38:43;96699.47;;;4.97;74.21
31357;BME280;60001;48.404;11.738;2023-11-22T05:40:14;96707.75;;;4.87;73.94
31357;BME280;60001;48.404;11.738;2023-11-22T05:41:46;96710.34;;;4.93;74.13
31357;BME280;60001;48.404;11.738;2023-11-22T05:43:20;96713.94;;;4.99;74.01
31357;BME280;60001;48.404;11.738;2023-11-22T05:44:55;96718.81;;;4.89;73.73
31357;BME280;60001;48.404;11.738;2023-11-22T05:46:27;96719.41;;;4.98;74.19
31357;BME280;60001;48.404;11.738;2023-11-22T05:47:58;96723.25;;;4.95;73.99
31357;BME280;60001;48.404;11.738;2023-11-22T05:49:30;96718.78;;;5.02;73.83
31357;BME280;60001;48.404;11.738;2023-11-22T05:51:01;96728.06;;;4.98;74.25
31357;BME280;60001;48.404;11.738;2023-11-22T05:52:32;96728.88;;;4.92;74.61
31357;BME280;60001;48.404;11.738;2023-11-22T05:54:03;96736.13;;;4.90;74.66
31357;BME280;60001;48.404;11.738;2023-11-22T05:55:35;96735.72;;;4.93;74.45
31357;BME280;60001;48.404;11.738;2023-11-22T05:57:08;96740.56;;;4.89;74.57
31357;BME280;60001;48.404;11.738;2023-11-22T05:58:41;96742.59;;;4.81;74.89
31357;BME280;60001;48.404;11.738;2023-11-22T06:00:12;96736.13;;;4.83;75.32
31357;BME280;60001;48.404;11.738;2023-11-22T06:01:46;96733.53;;;4.83;74.79
31357;BME280;60001;48.404;11.738;2023-11-22T06:03:16;96737.34;;;4.87;74.87
31357;BME280;60001;48.404;11.738;2023-11-22T06:04:48;96739.75;;;4.89;74.52
31357;BME280;60001;48.404;11.738;2023-11-22T06:06:19;96739.78;;;4.76;74.85
31357;BME280;60001;48.404;11.738;2023-11-22T06:07:52;96733.75;;;4.68;75.12
31357;BME280;60001;48.404;11.738;2023-11-22T06:09:23;96737.16;;;4.76;74.79
31357;BME280;60001;48.404;11.738;2023-11-22T06:10:55;96742.38;;;4.82;75.53
31357;BME280;60001;48.404;11.738;2023-11-22T06:12:27;96747.81;;;4.87;75.06
31357;BME280;60001;48.404;11.738;2023-11-22T06:14:00;96738.75;;;4.90;75.15
31357;BME280;60001;48.404;11.738;2023-11-22T06:15:31;96743.78;;;4.85;75.40
31357;BME280;60001;48.404;11.738;2023-11-22T06:17:03;96740.56;;;4.83;74.76
31357;BME280;60001;48.404;11.738;2023-11-22T06:18:34;96748.63;;;4.88;75.23
31357;BME280;60001;48.404;11.738;2023-11-22T06:20:11;96757.88;;;4.90;75.51
31357;BME280;60001;48.404;11.738;2023-11-22T06:21:42;96757.66;;;4.85;76.25
31357;BME280;60001;48.404;11.738;2023-11-22T06:23:13;96758.66;;;4.91;75.84
31357;BME280;60001;48.404;11.738;2023-11-22T06:24:44;96751.44;;;4.80;75.54
31357;BME280;60001;48.404;11.738;2023-11-22T06:26:18;96749.22;;;4.70;76.23
31357;BME280;60001;48.404;11.738;2023-11-22T06:27:49;96743.78;;;4.72;75.80
31357;BME280;60001;48.404;11.738;2023-11-22T06:29:23;96750.03;;;4.84;75.53
31357;BME280;60001;48.404;11.738;2023-11-22T06:30:54;96752.25;;;4.87;76.31
31357;BME280;60001;48.404;11.738;2023-11-22T06:32:26;96756.25;;;4.83;77.00
31357;BME280;60001;48.404;11.738;2023-11-22T06:33:57;96751.03;;;4.83;76.24
31357;BME280;60001;48.404;11.738;2023-11-22T06:35:30;96762.09;;;4.85;76.43
31357;BME280;60001;48.404;11.738;2023-11-22T06:37:00;96761.69;;;4.88;76.24
31357;BME280;60001;48.404;11.738;2023-11-22T06:38:32;96760.91;;;4.81;76.71
31357;BME280;60001;48.404;11.738;2023-11-22T06:40:06;96766.72;;;4.89;76.48
31357;BME280;60001;48.404;11.738;2023-11-22T06:41:39;96767.09;;;4.93;76.34
31357;BME280;60001;48.404;11.738;2023-11-22T06:43:10;96770.13;;;4.97;76.23
31357;BME280;60001;48.404;11.738;2023-11-22T06:44:43;96774.16;;;4.99;75.89
31357;BME280;60001;48.404;11.738;2023-11-22T06:46:14;96781.19;;;4.99;75.68
31357;BME280;60001;48.404;11.738;2023-11-22T06:47:46;96790.47;;;4.88;76.24
31357;BME280;60001;48.404;11.738;2023-11-22T06:49:17;96795.28;;;4.91;76.80
31357;BME280;60001;48.404;11.738;2023-11-22T06:50:49;96804.56;;;4.87;76.29
31357;BME280;60001;48.404;11.738;2023-11-22T06:52:19;96792.31;;;4.74;76.14
31357;BME280;60001;48.404;11.738;2023-11-22T06:53:51;96806.34;;;4.86;76.08
31357;BME280;60001;48.404;11.738;2023-11-22T06:55:24;96801.97;;;4.80;75.71
31357;BME280;60001;48.404;11.738;2023-11-22T06:56:57;96817.44;;;4.88;75.58
31357;BME280;60001;48.404;11.738;2023-11-22T06:58:28;96818.03;;;4.84;75.38
31357;BME280;60001;48.404;11.738;2023-11-22T07:00:02;96811.81;;;4.85;76.10
31357;BME280;60001;48.404;11.738;2023-11-22T07:01:35;96814.03;;;4.88;76.00
31357;BME280;60001;48.404;11.738;2023-11-22T07:03:07;96816.81;;;4.93;75.69
31357;BME280;60001;48.404;11.738;2023-11-22T07:04:38;96815.00;;;4.93;75.37
31357;BME280;60001;48.404;11.738;2023-11-22T07:06:10;96808.16;;;4.92;75.78
31357;BME280;60001;48.404;11.738;2023-11-22T07:07:42;96818.84;;;4.91;75.92
31357;BME280;60001;48.404;11.738;2023-11-22T07:09:13;96812.59;;;4.92;75.41
31357;BME280;60001;48.404;11.738;2023-11-22T07:10:45;96817.03;;;4.91;75.40
31357;BME280;60001;48.404;11.738;2023-11-22T07:12:15;96822.06;;;4.93;75.02
31357;BME280;60001;48.404;11.738;2023-11-22T07:13:49;96816.22;;;4.91;75.31
31357;BME280;60001;48.404;11.738;2023-11-22T07:15:21;96817.84;;;4.79;75.61
31357;BME280;60001;48.404;11.738;2023-11-22T07:16:53;96823.69;;;4.87;75.62
31357;BME280;60001;48.404;11.738;2023-11-22T07:18:24;96831.72;;;4.92;75.22
31357;BME280;60001;48.404;11.738;2023-11-22T07:19:58;96840.59;;;4.85;75.38
31357;BME280;60001;48.404;11.738;2023-11-22T07:21:29;96841.81;;;4.82;75.38
31357;BME280;60001;48.404;11.738;2023-11-22T07:23:01;96829.94;;;4.73;76.20
31357;BME280;60001;48.404;11.738;2023-11-22T07:24:32;96852.06;;;4.84;75.68
31357;BME280;60001;48.404;11.738;2023-11-22T07:26:04;96848.44;;;4.85;75.27
31357;BME280;60001;48.404;11.738;2023-11-22T07:27:36;96852.28;;;4.89;75.63
31357;BME280;60001;48.404;11.738;2023-11-22T07:29:09;96860.13;;;4.82;76.23
31357;BME280;60001;48.404;11.738;2023-11-22T07:30:42;96866.97;;;4.83;76.06
31357;BME280;60001;48.404;11.738;2023-11-22T07:32:13;96876.63;;;4.83;75.63
31357;BME280;60001;48.404;11.738;2023-11-22T07:33:46;96877.22;;;4.85;75.97
31357;BME280;60001;48.404;11.738;2023-11-22T07:35:18;96876.19;;;4.86;76.01
31357;BME280;60001;48.404;11.738;2023-11-22T07:36:50;96881.25;;;4.81;76.26
31357;BME280;60001;48.404;11.738;2023-11-22T07:38:22;96893.72;;;4.79;76.54
31357;BME280;60001;48.404;11.738;2023-11-22T07:39:54;96885.47;;;4.75;76.44
31357;BME280;60001;48.404;11.738;2023-11-22T07:41:25;96890.09;;;4.80;76.45
31357;BME280;60001;48.404;11.738;2023-11-22T07:42:57;96881.44;;;4.73;76.98
31357;BME280;60001;48.404;11.738;2023-11-22T07:44:28;96897.13;;;4.86;76.27
31357;BME280;60001;48.404;11.738;2023-11-22T07:46:06;96906.41;;;4.82;76.87
31357;BME280;60001;48.404;11.738;2023-11-22T07:47:43;96900.97;;;4.83;77.02
31357;BME280;60001;48.404;11.738;2023-11-22T07:49:14;96906.41;;;4.82;76.93
31357;BME280;60001;48.404;11.738;2023-11-22T07:50:45;96897.94;;;4.80;76.35
31357;BME280;60001;48.404;11.738;2023-11-22T07:52:19;96893.53;;;4.74;75.91
31357;BME280;60001;48.404;11.738;2023-11-22T07:53:54;96890.28;;;4.72;75.95
31357;BME280;60001;48.404;11.738;2023-11-22T07:55:26;96897.53;;;4.76;75.85
31357;BME280;60001;48.404;11.738;2023-11-22T07:56:58;96900.16;;;4.70;76.52
31357;BME280;60001;48.404;11.738;2023-11-22T07:58:29;96906.59;;;4.74;76.62
31357;BME280;60001;48.404;11.738;2023-11-22T08:00:02;96914.84;;;4.71;76.45
31357;BME280;60001;48.404;11.738;2023-11-22T08:01:42;96899.09;;;4.51;75.90
31357;BME280;60001;48.404;11.738;2023-11-22T08:03:14;96918.22;;;4.58;76.18
31357;BME280;60001;48.404;11.738;2023-11-22T08:04:46;96922.47;;;4.52;76.49
31357;BME280;60001;48.404;11.738;2023-11-22T08:06:19;96928.53;;;4.59;76.42